sensor_id;sensor_type;location;lat;lon;timestamp;temperature;humidity
18446;DHT22;9352;50.888;4.466;2022-10-16T00:02:25;13.90;99.90
18446;DHT22;9352;50.888;4.466;2022-10-16T00:04:52;13.90;99.90
18446;DHT22;9352;50.888;4.466;2022-10-16T00:07:21;13.90;99.90
18446;DHT22;9352;50.888;4.466;2022-10-16T00:09:48;13.90;99.90
18446;DHT22;9352;50.888;4.466;2022-10-16T00:12:15;13.90;99.90
18446;DHT22;9352;50.888;4.466;2022-10-16T00:14:42;13.90;99.90
18446;DHT22;9352;50.888;4.466;2022-10-16T00:17:09;13.90;99.90
18446;DHT22;9352;50.888;4.466;2022-10-16T00:19:36;13.90;99.90
18446;DHT22;9352;50.888;4.466;2022-10-16T00:22:03;13.90;99.90
18446;DHT22;9352;50.888;4.466;2022-10-16T00:24:31;13.90;99.90
18446;DHT22;9352;50.888;4.466;2022-10-16T00:26:58;13.90;99.90
18446;DHT22;9352;50.888;4.466;2022-10-16T00:29:25;13.90;99.90
18446;DHT22;9352;50.888;4.466;2022-10-16T00:31:52;14.00;99.90
18446;DHT22;9352;50.888;4.466;2022-10-16T00:34:19;14.00;99.90
18446;DHT22;9352;50.888;4.466;2022-10-16T00:36:46;14.00;99.90
18446;DHT22;9352;50.888;4.466;2022-10-16T00:39:13;13.90;99.90
18446;DHT22;9352;50.888;4.466;2022-10-16T00:41:41;13.90;99.90
18446;DHT22;9352;50.888;4.466;2022-10-16T00:47:17;13.90;99.90
18446;DHT22;9352;50.888;4.466;2022-10-16T00:49:46;13.90;99.90
18446;DHT22;9352;50.888;4.466;2022-10-16T00:52:14;13.80;99.90
18446;DHT22;9352;50.888;4.466;2022-10-16T00:54:41;13.80;99.90
18446;DHT22;9352;50.888;4.466;2022-10-16T00:57:09;13.80;99.90
18446;DHT22;9352;50.888;4.466;2022-10-16T00:59:39;13.80;99.90
18446;DHT22;9352;50.888;4.466;2022-10-16T01:02:10;13.80;99.90
18446;DHT22;9352;50.888;4.466;2022-10-16T01:04:39;13.80;99.90
18446;DHT22;9352;50.888;4.466;2022-10-16T01:07:12;13.80;99.90
18446;DHT22;9352;50.888;4.466;2022-10-16T01:09:47;13.80;99.90
18446;DHT22;9352;50.888;4.466;2022-10-16T01:12:31;13.80;99.90
18446;DHT22;9352;50.888;4.466;2022-10-16T01:15:02;13.80;99.90
18446;DHT22;9352;50.888;4.466;2022-10-16T01:17:36;13.80;99.90
18446;DHT22;9352;50.888;4.466;2022-10-16T01:20:10;13.70;99.90
18446;DHT22;9352;50.888;4.466;2022-10-16T01:22:43;13.70;99.90
18446;DHT22;9352;50.888;4.466;2022-10-16T01:25:19;13.70;99.90
18446;DHT22;9352;50.888;4.466;2022-10-16T01:27:51;13.70;99.90
18446;DHT22;9352;50.888;4.466;2022-10-16T01:30:22;13.70;99.90
18446;DHT22;9352;50.888;4.466;2022-10-16T01:32:54;13.70;99.90
18446;DHT22;9352;50.888;4.466;2022-10-16T01:35:25;13.70;99.90
18446;DHT22;9352;50.888;4.466;2022-10-16T01:37:58;13.70;99.90
18446;DHT22;9352;50.888;4.466;2022-10-16T01:40:27;13.60;99.90
18446;DHT22;9352;50.888;4.466;2022-10-16T01:43:00;13.60;99.90
18446;DHT22;9352;50.888;4.466;2022-10-16T01:45:30;13.60;99.90
18446;DHT22;9352;50.888;4.466;2022-10-16T01:48:00;13.60;99.90
18446;DHT22;9352;50.888;4.466;2022-10-16T01:50:31;13.60;99.90
18446;DHT22;9352;50.888;4.466;2022-10-16T01:53:02;13.60;99.90
18446;DHT22;9352;50.888;4.466;2022-10-16T01:55:33;13.60;99.90
18446;DHT22;9352;50.888;4.466;2022-10-16T01:58:05;13.60;99.90
18446;DHT22;9352;50.888;4.466;2022-10-16T02:00:34;13.60;99.90
18446;DHT22;9352;50.888;4.466;2022-10-16T02:03:04;13.60;99.90
18446;DHT22;9352;50.888;4.466;2022-10-16T02:05:34;13.60;99.90
18446;DHT22;9352;50.888;4.466;2022-10-16T02:08:03;13.60;99.90
18446;DHT22;9352;50.888;4.466;2022-10-16T02:10:35;13.60;99.90
18446;DHT22;9352;50.888;4.466;2022-10-16T02:13:08;13.60;99.90
18446;DHT22;9352;50.888;4.466;2022-10-16T02:15:35;13.60;99.90
18446;DHT22;9352;50.888;4.466;2022-10-16T02:18:03;13.60;99.90
18446;DHT22;9352;50.888;4.466;2022-10-16T02:20:34;13.60;99.90
18446;DHT22;9352;50.888;4.466;2022-10-16T02:23:03;13.60;99.90
18446;DHT22;9352;50.888;4.466;2022-10-16T02:25:32;13.60;99.90
18446;DHT22;9352;50.888;4.466;2022-10-16T02:28:06;13.60;99.90
18446;DHT22;9352;50.888;4.466;2022-10-16T02:30:36;13.60;99.90
18446;DHT22;9352;50.888;4.466;2022-10-16T02:33:07;13.60;99.90
18446;DHT22;9352;50.888;4.466;2022-10-16T02:35:36;13.50;99.90
18446;DHT22;9352;50.888;4.466;2022-10-16T02:38:04;13.50;99.90
18446;DHT22;9352;50.888;4.466;2022-10-16T02:40:31;13.50;99.90
18446;DHT22;9352;50.888;4.466;2022-10-16T02:42:58;13.50;99.90
18446;DHT22;9352;50.888;4.466;2022-10-16T02:45:26;13.50;99.90
18446;DHT22;9352;50.888;4.466;2022-10-16T02:47:54;13.50;99.90
18446;DHT22;9352;50.888;4.466;2022-10-16T02:50:21;13.50;99.90
18446;DHT22;9352;50.888;4.466;2022-10-16T02:52:50;13.40;99.90
18446;DHT22;9352;50.888;4.466;2022-10-16T02:55:17;13.50;99.90
18446;DHT22;9352;50.888;4.466;2022-10-16T02:57:44;13.50;99.90
18446;DHT22;9352;50.888;4.466;2022-10-16T03:00:13;13.50;99.90
18446;DHT22;9352;50.888;4.466;2022-10-16T03:02:42;13.50;99.90
18446;DHT22;9352;50.888;4.466;2022-10-16T03:05:10;13.50;99.90
18446;DHT22;9352;50.888;4.466;2022-10-16T03:07:37;13.50;99.90
18446;DHT22;9352;50.888;4.466;2022-10-16T03:10:04;13.50;99.90
18446;DHT22;9352;50.888;4.466;2022-10-16T03:12:31;13.50;99.90
18446;DHT22;9352;50.888;4.466;2022-10-16T03:14:59;13.50;99.90
18446;DHT22;9352;50.888;4.466;2022-10-16T03:17:26;13.50;99.90
18446;DHT22;9352;50.888;4.466;2022-10-16T03:19:54;13.50;99.90
18446;DHT22;9352;50.888;4.466;2022-10-16T03:22:21;13.50;99.90
18446;DHT22;9352;50.888;4.466;2022-10-16T03:24:48;13.50;99.90
18446;DHT22;9352;50.888;4.466;2022-10-16T03:27:14;13.60;99.90
18446;DHT22;9352;50.888;4.466;2022-10-16T03:29:41;13.60;99.90
18446;DHT22;9352;50.888;4.466;2022-10-16T03:32:08;13.60;99.90
18446;DHT22;9352;50.888;4.466;2022-10-16T03:34:35;13.60;99.90
18446;DHT22;9352;50.888;4.466;2022-10-16T03:37:03;13.60;99.90
18446;DHT22;9352;50.888;4.466;2022-10-16T03:39:31;13.60;99.90
18446;DHT22;9352;50.888;4.466;2022-10-16T03:41:57;13.60;99.90
18446;DHT22;9352;50.888;4.466;2022-10-16T03:44:24;13.60;99.90
18446;DHT22;9352;50.888;4.466;2022-10-16T03:46:51;13.50;99.90
18446;DHT22;9352;50.888;4.466;2022-10-16T03:49:18;13.50;99.90
18446;DHT22;9352;50.888;4.466;2022-10-16T03:51:45;13.50;99.90
18446;DHT22;9352;50.888;4.466;2022-10-16T03:54:13;13.50;99.90
18446;DHT22;9352;50.888;4.466;2022-10-16T03:56:40;13.50;99.90
18446;DHT22;9352;50.888;4.466;2022-10-16T03:59:07;13.50;99.90
18446;DHT22;9352;50.888;4.466;2022-10-16T04:01:34;13.50;99.90
18446;DHT22;9352;50.888;4.466;2022-10-16T04:04:03;13.50;99.90
18446;DHT22;9352;50.888;4.466;2022-10-16T04:06:30;13.50;99.90
18446;DHT22;9352;50.888;4.466;2022-10-16T04:08:57;13.50;99.90
18446;DHT22;9352;50.888;4.466;2022-10-16T04:11:25;13.50;99.90
18446;DHT22;9352;50.888;4.466;2022-10-16T04:13:52;13.50;99.90
18446;DHT22;9352;50.888;4.466;2022-10-16T04:16:19;13.50;99.90
18446;DHT22;9352;50.888;4.466;2022-10-16T04:18:46;13.50;99.90
18446;DHT22;9352;50.888;4.466;2022-10-16T04:21:13;13.50;99.90
18446;DHT22;9352;50.888;4.466;2022-10-16T04:23:40;13.50;99.90
18446;DHT22;9352;50.888;4.466;2022-10-16T04:26:07;13.50;99.90
18446;DHT22;9352;50.888;4.466;2022-10-16T04:28:35;13.40;99.90
18446;DHT22;9352;50.888;4.466;2022-10-16T04:31:03;13.40;99.90
18446;DHT22;9352;50.888;4.466;2022-10-16T04:33:31;13.40;99.90
18446;DHT22;9352;50.888;4.466;2022-10-16T04:35:58;13.40;99.90
18446;DHT22;9352;50.888;4.466;2022-10-16T04:38:25;13.40;99.90
18446;DHT22;9352;50.888;4.466;2022-10-16T04:40:52;13.40;99.90
18446;DHT22;9352;50.888;4.466;2022-10-16T04:43:19;13.40;99.90
18446;DHT22;9352;50.888;4.466;2022-10-16T04:45:48;13.40;99.90
18446;DHT22;9352;50.888;4.466;2022-10-16T04:48:16;13.40;99.90
18446;DHT22;9352;50.888;4.466;2022-10-16T04:50:43;13.30;99.90
18446;DHT22;9352;50.888;4.466;2022-10-16T04:53:10;13.30;99.90
18446;DHT22;9352;50.888;4.466;2022-10-16T04:55:37;13.30;99.90
18446;DHT22;9352;50.888;4.466;2022-10-16T04:58:04;13.30;99.90
18446;DHT22;9352;50.888;4.466;2022-10-16T05:00:31;13.30;99.90
18446;DHT22;9352;50.888;4.466;2022-10-16T05:03:00;13.30;99.90
18446;DHT22;9352;50.888;4.466;2022-10-16T05:05:32;13.30;99.90
18446;DHT22;9352;50.888;4.466;2022-10-16T05:07:59;13.30;99.90
18446;DHT22;9352;50.888;4.466;2022-10-16T05:10:26;13.30;99.90
18446;DHT22;9352;50.888;4.466;2022-10-16T05:12:55;13.30;99.90
18446;DHT22;9352;50.888;4.466;2022-10-16T05:15:22;13.30;99.90
18446;DHT22;9352;50.888;4.466;2022-10-16T05:17:52;13.20;99.90
18446;DHT22;9352;50.888;4.466;2022-10-16T05:20:21;13.20;99.90
18446;DHT22;9352;50.888;4.466;2022-10-16T05:22:48;13.20;99.90
18446;DHT22;9352;50.888;4.466;2022-10-16T05:25:15;13.20;99.90
18446;DHT22;9352;50.888;4.466;2022-10-16T05:27:42;13.20;99.90
18446;DHT22;9352;50.888;4.466;2022-10-16T05:30:09;13.10;99.90
18446;DHT22;9352;50.888;4.466;2022-10-16T05:32:36;13.10;99.90
18446;DHT22;9352;50.888;4.466;2022-10-16T05:35:04;13.10;99.90
18446;DHT22;9352;50.888;4.466;2022-10-16T05:37:33;13.10;99.90
18446;DHT22;9352;50.888;4.466;2022-10-16T05:40:00;13.10;99.90
18446;DHT22;9352;50.888;4.466;2022-10-16T05:42:26;13.10;99.90
18446;DHT22;9352;50.888;4.466;2022-10-16T05:44:53;13.00;99.90
18446;DHT22;9352;50.888;4.466;2022-10-16T05:47:20;13.00;99.90
18446;DHT22;9352;50.888;4.466;2022-10-16T05:49:47;13.00;99.90
18446;DHT22;9352;50.888;4.466;2022-10-16T05:52:14;13.00;99.90
18446;DHT22;9352;50.888;4.466;2022-10-16T05:54:42;13.00;99.90
18446;DHT22;9352;50.888;4.466;2022-10-16T05:57:09;13.00;99.90
18446;DHT22;9352;50.888;4.466;2022-10-16T05:59:36;13.00;99.90
18446;DHT22;9352;50.888;4.466;2022-10-16T06:02:03;12.90;99.90
18446;DHT22;9352;50.888;4.466;2022-10-16T06:04:33;12.90;99.90
18446;DHT22;9352;50.888;4.466;2022-10-16T06:07:00;12.90;99.90
18446;DHT22;9352;50.888;4.466;2022-10-16T06:09:27;12.90;99.90
18446;DHT22;9352;50.888;4.466;2022-10-16T06:11:55;12.90;99.90
18446;DHT22;9352;50.888;4.466;2022-10-16T06:14:22;12.90;99.90
18446;DHT22;9352;50.888;4.466;2022-10-16T06:16:49;12.90;99.90
18446;DHT22;9352;50.888;4.466;2022-10-16T06:19:16;12.90;99.90
18446;DHT22;9352;50.888;4.466;2022-10-16T06:21:43;12.90;99.90
18446;DHT22;9352;50.888;4.466;2022-10-16T06:24:10;12.90;99.90
18446;DHT22;9352;50.888;4.466;2022-10-16T06:26:37;12.90;99.90
18446;DHT22;9352;50.888;4.466;2022-10-16T06:29:06;12.90;99.90
18446;DHT22;9352;50.888;4.466;2022-10-16T06:31:33;12.90;99.90
18446;DHT22;9352;50.888;4.466;2022-10-16T06:34:00;12.90;99.90
18446;DHT22;9352;50.888;4.466;2022-10-16T06:36:27;13.00;99.90
18446;DHT22;9352;50.888;4.466;2022-10-16T06:38:54;13.00;99.90
18446;DHT22;9352;50.888;4.466;2022-10-16T06:41:22;13.00;99.90
18446;DHT22;9352;50.888;4.466;2022-10-16T06:43:50;13.10;99.90
18446;DHT22;9352;50.888;4.466;2022-10-16T06:46:20;13.20;99.90
18446;DHT22;9352;50.888;4.466;2022-10-16T06:48:48;13.20;99.90
18446;DHT22;9352;50.888;4.466;2022-10-16T06:51:19;13.30;99.90
18446;DHT22;9352;50.888;4.466;2022-10-16T06:53:47;13.40;99.90
18446;DHT22;9352;50.888;4.466;2022-10-16T06:56:16;13.40;99.90
18446;DHT22;9352;50.888;4.466;2022-10-16T06:58:44;13.50;99.90
18446;DHT22;9352;50.888;4.466;2022-10-16T07:01:12;13.60;99.90
18446;DHT22;9352;50.888;4.466;2022-10-16T07:03:42;13.70;99.90
18446;DHT22;9352;50.888;4.466;2022-10-16T07:06:12;13.70;99.90
18446;DHT22;9352;50.888;4.466;2022-10-16T07:08:40;13.70;99.90
18446;DHT22;9352;50.888;4.466;2022-10-16T07:11:09;13.70;99.90
18446;DHT22;9352;50.888;4.466;2022-10-16T07:13:37;13.70;99.90
18446;DHT22;9352;50.888;4.466;2022-10-16T07:16:05;13.70;99.90
18446;DHT22;9352;50.888;4.466;2022-10-16T07:18:32;13.70;99.90
18446;DHT22;9352;50.888;4.466;2022-10-16T07:21:05;13.80;99.90
18446;DHT22;9352;50.888;4.466;2022-10-16T07:23:32;13.80;99.90
18446;DHT22;9352;50.888;4.466;2022-10-16T07:25:59;13.80;99.90
18446;DHT22;9352;50.888;4.466;2022-10-16T07:28:26;13.90;99.90
18446;DHT22;9352;50.888;4.466;2022-10-16T07:30:53;13.90;99.90
18446;DHT22;9352;50.888;4.466;2022-10-16T07:33:21;14.00;99.90
18446;DHT22;9352;50.888;4.466;2022-10-16T07:35:49;14.00;99.90
18446;DHT22;9352;50.888;4.466;2022-10-16T07:38:18;14.10;99.90
18446;DHT22;9352;50.888;4.466;2022-10-16T07:40:45;14.20;99.90
18446;DHT22;9352;50.888;4.466;2022-10-16T07:43:12;14.30;99.90
18446;DHT22;9352;50.888;4.466;2022-10-16T07:45:47;14.30;99.90
18446;DHT22;9352;50.888;4.466;2022-10-16T07:48:15;14.50;99.90
18446;DHT22;9352;50.888;4.466;2022-10-16T07:50:42;14.60;99.90
18446;DHT22;9352;50.888;4.466;2022-10-16T07:53:09;14.70;99.90
18446;DHT22;9352;50.888;4.466;2022-10-16T07:55:38;14.70;99.90
18446;DHT22;9352;50.888;4.466;2022-10-16T07:58:05;14.80;99.90
18446;DHT22;9352;50.888;4.466;2022-10-16T08:00:32;14.80;99.90
18446;DHT22;9352;50.888;4.466;2022-10-16T08:03:00;14.80;99.90
18446;DHT22;9352;50.888;4.466;2022-10-16T08:05:27;15.10;99.90
18446;DHT22;9352;50.888;4.466;2022-10-16T08:07:54;15.50;99.90
18446;DHT22;9352;50.888;4.466;2022-10-16T08:10:23;15.90;99.90
18446;DHT22;9352;50.888;4.466;2022-10-16T08:12:52;16.40;99.90
18446;DHT22;9352;50.888;4.466;2022-10-16T08:15:19;16.80;99.90
18446;DHT22;9352;50.888;4.466;2022-10-16T08:17:54;17.00;99.90
18446;DHT22;9352;50.888;4.466;2022-10-16T08:20:21;17.10;99.90
18446;DHT22;9352;50.888;4.466;2022-10-16T08:22:48;17.10;99.90
18446;DHT22;9352;50.888;4.466;2022-10-16T08:25:15;17.10;99.90
18446;DHT22;9352;50.888;4.466;2022-10-16T08:27:42;16.80;99.90
18446;DHT22;9352;50.888;4.466;2022-10-16T08:30:12;16.60;99.90
18446;DHT22;9352;50.888;4.466;2022-10-16T08:32:39;16.40;99.90
18446;DHT22;9352;50.888;4.466;2022-10-16T08:35:07;16.20;99.90
18446;DHT22;9352;50.888;4.466;2022-10-16T08:37:34;16.10;99.90
18446;DHT22;9352;50.888;4.466;2022-10-16T08:40:01;16.00;99.90
18446;DHT22;9352;50.888;4.466;2022-10-16T08:42:40;15.90;99.90
18446;DHT22;9352;50.888;4.466;2022-10-16T08:45:30;15.80;99.90
18446;DHT22;9352;50.888;4.466;2022-10-16T08:48:06;15.80;99.90
18446;DHT22;9352;50.888;4.466;2022-10-16T08:50:38;15.80;99.90
18446;DHT22;9352;50.888;4.466;2022-10-16T08:53:06;15.70;99.90
18446;DHT22;9352;50.888;4.466;2022-10-16T08:55:38;15.70;99.90
18446;DHT22;9352;50.888;4.466;2022-10-16T08:58:12;15.70;99.90
18446;DHT22;9352;50.888;4.466;2022-10-16T09:00:42;15.70;99.90
18446;DHT22;9352;50.888;4.466;2022-10-16T09:03:17;15.70;99.90
18446;DHT22;9352;50.888;4.466;2022-10-16T09:06:00;15.80;99.90
18446;DHT22;9352;50.888;4.466;2022-10-16T09:08:39;15.80;99.90
18446;DHT22;9352;50.888;4.466;2022-10-16T09:11:15;15.80;99.90
18446;DHT22;9352;50.888;4.466;2022-10-16T09:13:49;15.80;99.90
18446;DHT22;9352;50.888;4.466;2022-10-16T09:16:23;15.90;99.90
18446;DHT22;9352;50.888;4.466;2022-10-16T09:18:56;15.90;99.90
18446;DHT22;9352;50.888;4.466;2022-10-16T09:21:28;15.90;99.90
18446;DHT22;9352;50.888;4.466;2022-10-16T09:23:59;15.90;99.90
18446;DHT22;9352;50.888;4.466;2022-10-16T09:26:26;15.90;99.90
18446;DHT22;9352;50.888;4.466;2022-10-16T09:28:53;16.00;99.90
18446;DHT22;9352;50.888;4.466;2022-10-16T09:31:22;16.10;99.90
18446;DHT22;9352;50.888;4.466;2022-10-16T09:33:53;16.20;99.90
18446;DHT22;9352;50.888;4.466;2022-10-16T09:36:23;16.20;99.90
18446;DHT22;9352;50.888;4.466;2022-10-16T09:39:02;16.10;99.90
18446;DHT22;9352;50.888;4.466;2022-10-16T09:41:30;16.20;99.90
18446;DHT22;9352;50.888;4.466;2022-10-16T09:43:59;16.20;99.90
18446;DHT22;9352;50.888;4.466;2022-10-16T09:46:30;16.30;99.90
18446;DHT22;9352;50.888;4.466;2022-10-16T09:48:58;16.30;99.90
18446;DHT22;9352;50.888;4.466;2022-10-16T09:51:28;16.40;99.90
18446;DHT22;9352;50.888;4.466;2022-10-16T09:53:59;16.40;99.90
18446;DHT22;9352;50.888;4.466;2022-10-16T09:56:28;16.40;99.90
18446;DHT22;9352;50.888;4.466;2022-10-16T09:58:56;16.60;99.90
18446;DHT22;9352;50.888;4.466;2022-10-16T10:01:30;16.60;99.90
18446;DHT22;9352;50.888;4.466;2022-10-16T10:03:58;16.60;99.90
18446;DHT22;9352;50.888;4.466;2022-10-16T10:06:28;16.70;99.90
18446;DHT22;9352;50.888;4.466;2022-10-16T10:09:04;16.70;99.90
18446;DHT22;9352;50.888;4.466;2022-10-16T10:11:44;16.70;99.90
18446;DHT22;9352;50.888;4.466;2022-10-16T10:14:21;16.80;99.90
18446;DHT22;9352;50.888;4.466;2022-10-16T10:16:51;16.90;99.90
18446;DHT22;9352;50.888;4.466;2022-10-16T10:19:20;17.00;99.90
18446;DHT22;9352;50.888;4.466;2022-10-16T10:21:48;17.00;99.90
18446;DHT22;9352;50.888;4.466;2022-10-16T10:24:18;17.10;99.90
18446;DHT22;9352;50.888;4.466;2022-10-16T10:26:49;17.10;99.90
18446;DHT22;9352;50.888;4.466;2022-10-16T10:29:35;17.10;99.90
18446;DHT22;9352;50.888;4.466;2022-10-16T10:32:15;17.10;99.90
18446;DHT22;9352;50.888;4.466;2022-10-16T10:34:54;17.20;99.90
18446;DHT22;9352;50.888;4.466;2022-10-16T10:37:42;17.40;99.90
18446;DHT22;9352;50.888;4.466;2022-10-16T10:40:22;17.60;99.90
18446;DHT22;9352;50.888;4.466;2022-10-16T10:42:54;17.70;99.90
18446;DHT22;9352;50.888;4.466;2022-10-16T10:45:26;17.70;99.90
18446;DHT22;9352;50.888;4.466;2022-10-16T10:48:03;17.70;99.90
18446;DHT22;9352;50.888;4.466;2022-10-16T10:50:39;17.90;99.90
18446;DHT22;9352;50.888;4.466;2022-10-16T10:53:17;18.10;99.90
18446;DHT22;9352;50.888;4.466;2022-10-16T10:55:50;18.40;99.90
18446;DHT22;9352;50.888;4.466;2022-10-16T10:58:38;18.50;99.90
18446;DHT22;9352;50.888;4.466;2022-10-16T11:01:12;18.40;99.90
18446;DHT22;9352;50.888;4.466;2022-10-16T11:04:03;18.40;99.90
18446;DHT22;9352;50.888;4.466;2022-10-16T11:06:39;18.40;99.90
18446;DHT22;9352;50.888;4.466;2022-10-16T11:09:10;18.40;99.90
18446;DHT22;9352;50.888;4.466;2022-10-16T11:11:42;18.50;99.90
18446;DHT22;9352;50.888;4.466;2022-10-16T11:14:15;18.50;99.90
18446;DHT22;9352;50.888;4.466;2022-10-16T11:16:49;18.60;99.90
18446;DHT22;9352;50.888;4.466;2022-10-16T11:19:28;18.60;99.90
18446;DHT22;9352;50.888;4.466;2022-10-16T11:22:02;18.50;99.90
18446;DHT22;9352;50.888;4.466;2022-10-16T11:24:36;18.50;99.90
18446;DHT22;9352;50.888;4.466;2022-10-16T11:27:08;18.60;99.90
18446;DHT22;9352;50.888;4.466;2022-10-16T11:29:35;18.70;99.90
18446;DHT22;9352;50.888;4.466;2022-10-16T11:32:25;19.00;99.90
18446;DHT22;9352;50.888;4.466;2022-10-16T11:34:59;19.50;99.90
18446;DHT22;9352;50.888;4.466;2022-10-16T11:37:31;20.10;99.90
18446;DHT22;9352;50.888;4.466;2022-10-16T11:40:05;20.10;99.90
18446;DHT22;9352;50.888;4.466;2022-10-16T11:42:46;20.00;99.90
18446;DHT22;9352;50.888;4.466;2022-10-16T11:45:24;20.20;99.90
18446;DHT22;9352;50.888;4.466;2022-10-16T11:48:00;20.30;99.90
18446;DHT22;9352;50.888;4.466;2022-10-16T11:50:34;20.20;99.90
18446;DHT22;9352;50.888;4.466;2022-10-16T11:53:07;19.90;99.90
18446;DHT22;9352;50.888;4.466;2022-10-16T11:55:39;19.80;99.90
18446;DHT22;9352;50.888;4.466;2022-10-16T11:58:12;19.80;99.90
18446;DHT22;9352;50.888;4.466;2022-10-16T12:00:45;19.70;99.90
18446;DHT22;9352;50.888;4.466;2022-10-16T12:03:19;19.80;99.90
18446;DHT22;9352;50.888;4.466;2022-10-16T12:05:58;20.00;99.90
18446;DHT22;9352;50.888;4.466;2022-10-16T12:08:29;20.10;99.90
18446;DHT22;9352;50.888;4.466;2022-10-16T12:11:07;20.30;99.90
18446;DHT22;9352;50.888;4.466;2022-10-16T12:13:36;20.50;99.90
18446;DHT22;9352;50.888;4.466;2022-10-16T12:16:19;20.70;99.90
18446;DHT22;9352;50.888;4.466;2022-10-16T12:18:47;21.00;99.90
18446;DHT22;9352;50.888;4.466;2022-10-16T12:21:17;21.10;99.90
18446;DHT22;9352;50.888;4.466;2022-10-16T12:23:49;21.10;99.90
18446;DHT22;9352;50.888;4.466;2022-10-16T12:26:24;21.00;99.90
18446;DHT22;9352;50.888;4.466;2022-10-16T12:28:51;20.80;99.90
18446;DHT22;9352;50.888;4.466;2022-10-16T12:31:18;20.70;99.90
18446;DHT22;9352;50.888;4.466;2022-10-16T12:33:56;20.90;99.90
18446;DHT22;9352;50.888;4.466;2022-10-16T12:36:30;21.10;99.90
18446;DHT22;9352;50.888;4.466;2022-10-16T12:38:57;21.20;99.90
18446;DHT22;9352;50.888;4.466;2022-10-16T12:41:26;21.20;99.90
18446;DHT22;9352;50.888;4.466;2022-10-16T12:43:54;21.10;99.90
18446;DHT22;9352;50.888;4.466;2022-10-16T12:46:26;21.20;99.90
18446;DHT22;9352;50.888;4.466;2022-10-16T12:49:06;21.00;99.90
18446;DHT22;9352;50.888;4.466;2022-10-16T12:51:36;20.80;99.90
18446;DHT22;9352;50.888;4.466;2022-10-16T12:54:11;20.60;99.90
18446;DHT22;9352;50.888;4.466;2022-10-16T12:56:47;20.60;99.90
18446;DHT22;9352;50.888;4.466;2022-10-16T12:59:24;20.60;99.90
18446;DHT22;9352;50.888;4.466;2022-10-16T13:02:07;20.50;99.90
18446;DHT22;9352;50.888;4.466;2022-10-16T13:04:50;20.40;99.90
18446;DHT22;9352;50.888;4.466;2022-10-16T13:07:41;20.60;99.90
18446;DHT22;9352;50.888;4.466;2022-10-16T13:10:17;20.80;99.90
18446;DHT22;9352;50.888;4.466;2022-10-16T13:16:02;21.20;99.90
18446;DHT22;9352;50.888;4.466;2022-10-16T13:18:38;21.40;99.90
18446;DHT22;9352;50.888;4.466;2022-10-16T13:21:24;21.30;99.90
18446;DHT22;9352;50.888;4.466;2022-10-16T13:23:59;21.20;99.90
18446;DHT22;9352;50.888;4.466;2022-10-16T13:26:36;21.10;99.90
18446;DHT22;9352;50.888;4.466;2022-10-16T13:29:07;21.00;99.90
18446;DHT22;9352;50.888;4.466;2022-10-16T13:31:38;20.90;99.90
18446;DHT22;9352;50.888;4.466;2022-10-16T13:34:05;20.90;99.90
18446;DHT22;9352;50.888;4.466;2022-10-16T13:36:44;21.00;99.90
18446;DHT22;9352;50.888;4.466;2022-10-16T13:39:14;20.90;99.90
18446;DHT22;9352;50.888;4.466;2022-10-16T13:41:43;20.80;99.90
18446;DHT22;9352;50.888;4.466;2022-10-16T13:44:15;20.80;99.90
18446;DHT22;9352;50.888;4.466;2022-10-16T13:46:44;20.80;99.90
18446;DHT22;9352;50.888;4.466;2022-10-16T13:49:14;20.80;99.90
18446;DHT22;9352;50.888;4.466;2022-10-16T13:51:53;20.70;99.90
18446;DHT22;9352;50.888;4.466;2022-10-16T13:54:21;20.70;99.90
18446;DHT22;9352;50.888;4.466;2022-10-16T13:56:48;20.60;99.90
18446;DHT22;9352;50.888;4.466;2022-10-16T13:59:24;20.50;99.90
18446;DHT22;9352;50.888;4.466;2022-10-16T14:01:53;20.40;99.90
18446;DHT22;9352;50.888;4.466;2022-10-16T14:04:20;20.40;99.90
18446;DHT22;9352;50.888;4.466;2022-10-16T14:06:50;20.40;99.90
18446;DHT22;9352;50.888;4.466;2022-10-16T14:09:23;20.50;99.90
18446;DHT22;9352;50.888;4.466;2022-10-16T14:11:54;20.50;99.90
18446;DHT22;9352;50.888;4.466;2022-10-16T14:14:22;20.40;99.90
18446;DHT22;9352;50.888;4.466;2022-10-16T14:16:50;20.40;99.90
18446;DHT22;9352;50.888;4.466;2022-10-16T14:19:20;20.20;99.90
18446;DHT22;9352;50.888;4.466;2022-10-16T14:21:49;20.10;99.90
18446;DHT22;9352;50.888;4.466;2022-10-16T14:24:26;20.10;99.90
18446;DHT22;9352;50.888;4.466;2022-10-16T14:26:54;20.10;99.90
18446;DHT22;9352;50.888;4.466;2022-10-16T14:29:23;20.10;99.90
18446;DHT22;9352;50.888;4.466;2022-10-16T14:31:57;20.00;99.90
18446;DHT22;9352;50.888;4.466;2022-10-16T14:34:27;19.90;99.90
18446;DHT22;9352;50.888;4.466;2022-10-16T14:36:54;19.90;99.90
18446;DHT22;9352;50.888;4.466;2022-10-16T14:39:24;19.90;99.90
18446;DHT22;9352;50.888;4.466;2022-10-16T14:41:54;20.00;99.90
18446;DHT22;9352;50.888;4.466;2022-10-16T14:44:28;20.00;99.90
18446;DHT22;9352;50.888;4.466;2022-10-16T14:46:56;20.10;99.90
18446;DHT22;9352;50.888;4.466;2022-10-16T14:49:25;20.20;99.90
18446;DHT22;9352;50.888;4.466;2022-10-16T14:51:53;20.10;99.90
18446;DHT22;9352;50.888;4.466;2022-10-16T14:54:20;20.10;99.90
18446;DHT22;9352;50.888;4.466;2022-10-16T14:56:51;20.20;99.90
18446;DHT22;9352;50.888;4.466;2022-10-16T14:59:22;20.20;99.90
18446;DHT22;9352;50.888;4.466;2022-10-16T15:01:50;20.20;99.90
18446;DHT22;9352;50.888;4.466;2022-10-16T15:04:16;20.20;99.90
18446;DHT22;9352;50.888;4.466;2022-10-16T15:06:44;20.10;99.90
18446;DHT22;9352;50.888;4.466;2022-10-16T15:09:11;20.10;99.90
18446;DHT22;9352;50.888;4.466;2022-10-16T15:11:38;20.00;99.90
18446;DHT22;9352;50.888;4.466;2022-10-16T15:14:09;20.00;99.90
18446;DHT22;9352;50.888;4.466;2022-10-16T15:16:37;20.00;99.90
18446;DHT22;9352;50.888;4.466;2022-10-16T15:19:04;20.00;99.90
18446;DHT22;9352;50.888;4.466;2022-10-16T15:21:32;19.90;99.90
18446;DHT22;9352;50.888;4.466;2022-10-16T15:24:00;19.80;99.90
18446;DHT22;9352;50.888;4.466;2022-10-16T15:26:28;19.80;99.90
18446;DHT22;9352;50.888;4.466;2022-10-16T15:28:56;19.60;99.90
18446;DHT22;9352;50.888;4.466;2022-10-16T15:31:25;19.60;99.90
18446;DHT22;9352;50.888;4.466;2022-10-16T15:33:52;19.40;99.90
18446;DHT22;9352;50.888;4.466;2022-10-16T15:36:27;19.30;99.90
18446;DHT22;9352;50.888;4.466;2022-10-16T15:38:59;19.20;99.90
18446;DHT22;9352;50.888;4.466;2022-10-16T15:41:26;19.10;99.90
18446;DHT22;9352;50.888;4.466;2022-10-16T15:43:53;19.10;99.90
18446;DHT22;9352;50.888;4.466;2022-10-16T15:46:21;18.90;99.90
18446;DHT22;9352;50.888;4.466;2022-10-16T15:48:51;18.80;99.90
18446;DHT22;9352;50.888;4.466;2022-10-16T15:51:22;18.70;99.90
18446;DHT22;9352;50.888;4.466;2022-10-16T15:53:48;18.60;99.90
18446;DHT22;9352;50.888;4.466;2022-10-16T15:56:17;18.60;99.90
18446;DHT22;9352;50.888;4.466;2022-10-16T15:58:44;18.50;99.90
18446;DHT22;9352;50.888;4.466;2022-10-16T16:01:11;18.50;99.90
18446;DHT22;9352;50.888;4.466;2022-10-16T16:03:38;18.30;99.90
18446;DHT22;9352;50.888;4.466;2022-10-16T16:06:09;18.30;99.90
18446;DHT22;9352;50.888;4.466;2022-10-16T16:08:37;18.20;99.90
18446;DHT22;9352;50.888;4.466;2022-10-16T16:11:05;18.10;99.90